Time;durP1;ratioP1;P1;durP2;ratioP2;P2;SDS_P1;SDS_P2;PMS_P1;PMS_P2;Temp;Humidity;BMP_temperature;BMP_pressure;BME280_temperature;BME280_humidity;BME280_pressure;Samples;Min_cycle;Max_cycle;Signal;HPM_P1;HPM_P2
2024/01/14 00:01:23;;;;;;;1.38;1.38;;;;;;;-3.87;83.89;98727.50;4920936;29;20031;-94
2024/01/14 00:03:51;;;;;;;1.20;1.20;;;;;;;-3.92;82.66;98719.31;4922008;29;20031;-94
2024/01/14 00:06:20;;;;;;;1.30;1.30;;;;;;;-3.89;83.22;98724.75;4936186;29;20107;-94
2024/01/14 00:08:46;;;;;;;1.20;1.20;;;;;;;-3.96;83.35;98721.53;4925278;29;20044;-93
2024/01/14 00:11:12;;;;;;;1.20;1.20;;;;;;;-3.99;83.61;98716.94;4909199;29;20087;-94
2024/01/14 00:13:39;;;;;;;1.30;1.30;;;;;;;-4.01;83.73;98707.19;4924712;29;20040;-93
2024/01/14 00:16:06;;;;;;;1.30;1.30;;;;;;;-4.05;83.34;98694.69;4939605;29;20051;-94
2024/01/14 00:18:33;;;;;;;1.17;1.17;;;;;;;-4.09;83.53;98696.13;4893556;29;20056;-94
2024/01/14 00:20:59;;;;;;;1.20;1.20;;;;;;;-4.08;83.90;98690.09;4922092;29;20044;-94
2024/01/14 00:23:28;;;;;;;1.30;1.30;;;;;;;-4.07;83.51;98693.63;4921766;29;20044;-93
2024/01/14 00:25:55;;;;;;;1.30;1.30;;;;;;;-4.00;83.43;98690.78;4915803;29;20036;-93
2024/01/14 00:28:26;;;;;;;1.20;1.20;;;;;;;-4.02;83.79;98684.53;4890463;29;20048;-92
2024/01/14 00:30:57;;;;;;;1.10;1.10;;;;;;;-4.04;83.50;98676.56;4922499;29;20087;-94
2024/01/14 00:33:23;;;;;;;1.30;1.30;;;;;;;-4.11;83.18;98679.44;4916223;29;20511;-94
2024/01/14 00:35:49;;;;;;;1.27;1.27;;;;;;;-4.05;83.42;98664.34;4903711;29;20036;-94
2024/01/14 00:38:15;;;;;;;1.23;1.23;;;;;;;-4.08;83.87;98671.88;4921387;29;20035;-93
2024/01/14 00:40:42;;;;;;;1.30;1.30;;;;;;;-4.01;83.38;98661.19;4912580;29;20051;-92
2024/01/14 00:43:08;;;;;;;1.20;1.20;;;;;;;-4.02;83.18;98648.97;4905748;29;20047;-94
2024/01/14 00:45:33;;;;;;;1.30;1.30;;;;;;;-4.01;83.12;98649.88;4930029;29;20060;-94
2024/01/14 00:48:00;;;;;;;1.13;1.13;;;;;;;-4.03;82.99;98639.31;4935241;29;20035;-95
2024/01/14 00:50:25;;;;;;;1.30;1.30;;;;;;;-4.04;82.36;98636.56;4904714;29;20031;-95
2024/01/14 00:52:51;;;;;;;1.20;1.20;;;;;;;-3.92;82.24;98641.13;4919626;29;20040;-95
2024/01/14 00:55:17;;;;;;;1.30;1.30;;;;;;;-3.94;82.19;98632.25;4914961;29;20048;-95
2024/01/14 00:57:44;;;;;;;1.10;1.10;;;;;;;-4.00;82.64;98625.63;4918088;29;20079;-94
2024/01/14 01:00:11;;;;;;;1.30;1.30;;;;;;;-4.04;82.29;98621.84;4921758;29;20055;-94
2024/01/14 01:02:37;;;;;;;1.30;1.30;;;;;;;-3.99;81.81;98622.25;4920776;29;20043;-95
2024/01/14 01:05:03;;;;;;;1.30;1.30;;;;;;;-3.99;81.87;98627.44;4938557;29;20036;-94
2024/01/14 01:07:29;;;;;;;1.20;1.20;;;;;;;-4.02;82.07;98617.69;4899650;29;20051;-94
2024/01/14 01:09:58;;;;;;;1.30;1.30;;;;;;;-4.04;82.34;98628.75;4892817;29;20036;-94
2024/01/14 01:12:23;;;;;;;1.20;1.20;;;;;;;-4.19;83.14;98617.97;4921852;29;20040;-94
2024/01/14 01:14:50;;;;;;;1.20;1.20;;;;;;;-4.05;82.65;98616.53;4910362;29;20144;-94
2024/01/14 01:17:15;;;;;;;1.30;1.30;;;;;;;-3.96;82.82;98612.09;4905996;29;20040;-93
2024/01/14 01:19:41;;;;;;;1.20;1.20;;;;;;;-3.90;82.03;98610.88;4903644;29;20069;-93
2024/01/14 01:22:07;;;;;;;1.30;1.30;;;;;;;-3.89;82.22;98599.66;4904316;29;20107;-92
2024/01/14 01:24:36;;;;;;;1.25;1.25;;;;;;;-4.04;82.34;98593.19;4926022;29;20036;-94
2024/01/14 01:27:02;;;;;;;1.30;1.30;;;;;;;-3.95;81.90;98593.97;4904385;29;20076;-93
2024/01/14 01:29:28;;;;;;;1.23;1.23;;;;;;;-3.89;81.79;98588.34;4911367;29;20064;-92
2024/01/14 01:32:01;;;;;;;1.30;1.30;;;;;;;-3.78;80.16;98581.44;4929812;29;20040;-95
2024/01/14 01:34:27;;;;;;;1.30;1.30;;;;;;;-3.82;80.05;98584.56;4929509;29;20036;-94
2024/01/14 01:36:53;;;;;;;1.20;1.20;;;;;;;-3.92;80.90;98572.47;4907779;29;20036;-93
2024/01/14 01:39:19;;;;;;;1.30;1.30;;;;;;;-4.00;81.13;98570.91;4939059;29;20037;-93
2024/01/14 01:41:45;;;;;;;1.30;1.30;;;;;;;-3.93;80.92;98563.75;4926863;29;20040;-92
2024/01/14 01:44:10;;;;;;;1.20;1.20;;;;;;;-3.84;80.64;98570.47;4926432;29;20080;-94
2024/01/14 01:46:36;;;;;;;1.30;1.30;;;;;;;-3.87;80.84;98556.41;4912007;29;20112;-94
2024/01/14 01:49:02;;;;;;;1.20;1.20;;;;;;;-3.92;80.98;98567.25;4921813;29;20055;-94
2024/01/14 01:51:29;;;;;;;1.30;1.30;;;;;;;-4.00;81.82;98564.00;4918322;29;20038;-95
2024/01/14 01:53:56;;;;;;;1.25;1.25;;;;;;;-3.90;81.26;98566.59;4924049;29;20055;-94
2024/01/14 01:56:24;;;;;;;1.20;1.20;;;;;;;-3.88;80.79;98549.41;4928706;29;20044;-94
2024/01/14 01:58:52;;;;;;;1.30;1.30;;;;;;;-3.93;81.41;98552.38;4896682;29;20040;-93
2024/01/14 02:01:21;;;;;;;1.23;1.23;;;;;;;-4.00;81.19;98553.59;4907032;29;20052;-93
2024/01/14 02:03:50;;;;;;;1.30;1.30;;;;;;;-3.99;81.01;98542.38;4918439;29;20103;-93
2024/01/14 02:06:16;;;;;;;1.30;1.30;;;;;;;-4.01;81.70;98541.34;4945945;29;20068;-91
2024/01/14 02:08:43;;;;;;;1.30;1.30;;;;;;;-3.95;80.94;98546.16;4934916;29;20024;-93
2024/01/14 02:11:09;;;;;;;1.30;1.30;;;;;;;-3.92;80.95;98542.09;4925937;29;20040;-93
2024/01/14 02:13:35;;;;;;;1.30;1.30;;;;;;;-3.89;80.73;98539.72;4929841;29;20066;-93
2024/01/14 02:16:01;;;;;;;1.20;1.20;;;;;;;-3.89;80.78;98536.22;4924683;29;20091;-94
2024/01/14 02:18:26;;;;;;;1.20;1.20;;;;;;;-3.78;80.77;98544.94;4919561;29;20494;-93
2024/01/14 02:20:52;;;;;;;1.20;1.20;;;;;;;-3.82;80.47;98542.84;4904696;29;20047;-94
2024/01/14 02:23:21;;;;;;;1.30;1.30;;;;;;;-3.88;81.22;98531.16;4907391;29;20028;-93
2024/01/14 02:25:46;;;;;;;1.30;1.30;;;;;;;-3.86;80.75;98528.66;4924192;29;20068;-93
2024/01/14 02:28:14;;;;;;;1.30;1.30;;;;;;;-3.90;81.09;98530.09;4894223;29;20039;-94
2024/01/14 02:30:47;;;;;;;1.30;1.30;;;;;;;-3.75;80.25;98525.22;4923147;29;20028;-93
2024/01/14 02:33:18;;;;;;;1.30;1.30;;;;;;;-3.84;80.99;98524.47;4919484;29;20557;-92
2024/01/14 02:35:43;;;;;;;1.30;1.30;;;;;;;-3.82;80.45;98512.50;4910952;29;20032;-94
2024/01/14 02:38:09;;;;;;;1.20;1.20;;;;;;;-3.76;80.38;98512.06;4914673;29;20448;-93
2024/01/14 02:40:34;;;;;;;1.30;1.30;;;;;;;-3.78;80.67;98505.84;4925568;29;20059;-92
2024/01/14 02:43:00;;;;;;;1.20;1.20;;;;;;;-3.72;80.22;98509.84;4920716;29;20027;-94
2024/01/14 02:45:30;;;;;;;1.20;1.20;;;;;;;-3.76;80.48;98512.97;4900958;29;20494;-93
2024/01/14 02:47:59;;;;;;;1.20;1.20;;;;;;;-3.76;80.89;98525.09;4927660;29;20410;-92
2024/01/14 02:50:25;;;;;;;1.20;1.20;;;;;;;-3.75;81.15;98514.78;4915111;29;20040;-94
2024/01/14 02:52:53;;;;;;;1.20;1.20;;;;;;;-3.88;81.35;98517.19;4898362;29;20036;-94
2024/01/14 02:55:21;;;;;;;1.30;1.30;;;;;;;-3.79;81.47;98514.41;4921042;29;20040;-94
2024/01/14 02:57:48;;;;;;;1.30;1.30;;;;;;;-3.85;81.02;98520.03;4919774;29;20044;-94
2024/01/14 03:00:15;;;;;;;1.30;1.30;;;;;;;-3.74;80.87;98511.38;4918450;29;20037;-94
2024/01/14 03:02:41;;;;;;;1.20;1.20;;;;;;;-3.84;80.93;98508.84;4889563;29;20051;-93
2024/01/14 03:05:07;;;;;;;1.30;1.30;;;;;;;-3.92;81.52;98497.81;4900630;29;20060;-95
2024/01/14 03:07:32;;;;;;;1.30;1.30;;;;;;;-3.86;81.16;98505.22;4904591;29;20028;-94
2024/01/14 03:09:59;;;;;;;1.20;1.20;;;;;;;-3.90;81.28;98510.94;4918209;29;20035;-94
2024/01/14 03:12:24;;;;;;;1.20;1.20;;;;;;;-3.91;80.83;98506.53;4904592;29;20040;-94
2024/01/14 03:14:51;;;;;;;1.30;1.30;;;;;;;-3.95;81.55;98505.38;4904174;29;20053;-94
2024/01/14 03:17:17;;;;;;;1.30;1.30;;;;;;;-3.96;81.54;98506.16;4904554;29;20142;-93
2024/01/14 03:19:44;;;;;;;1.20;1.20;;;;;;;-4.02;82.79;98499.56;4914195;29;20151;-92
2024/01/14 03:22:10;;;;;;;1.30;1.30;;;;;;;-3.91;82.41;98506.53;4937180;29;20100;-93
2024/01/14 03:24:36;;;;;;;1.30;1.30;;;;;;;-3.97;82.16;98498.22;4922609;29;20043;-93
2024/01/14 03:27:01;;;;;;;1.30;1.30;;;;;;;-3.91;82.12;98497.00;4921266;29;20052;-93
2024/01/14 03:29:28;;;;;;;1.30;1.30;;;;;;;-3.91;82.42;98491.81;4899965;29;20029;-92
2024/01/14 03:31:54;;;;;;;1.20;1.20;;;;;;;-3.98;82.34;98493.78;4916116;29;20040;-94
2024/01/14 03:34:19;;;;;;;1.30;1.30;;;;;;;-4.05;82.02;98502.81;4914857;29;20050;-95
2024/01/14 03:36:45;;;;;;;1.20;1.20;;;;;;;-4.14;82.05;98502.06;4919971;29;20044;-94
2024/01/14 03:39:10;;;;;;;1.20;1.20;;;;;;;-4.09;81.99;98500.72;4902521;29;20044;-93
2024/01/14 03:41:36;;;;;;;1.20;1.20;;;;;;;-4.13;81.69;98498.66;4924993;29;20123;-94
2024/01/14 03:44:03;;;;;;;1.20;1.20;;;;;;;-4.14;82.27;98508.16;4903575;29;20040;-94
2024/01/14 03:46:29;;;;;;;1.30;1.30;;;;;;;-4.13;82.17;98503.84;4894099;29;20052;-93
2024/01/14 03:48:54;;;;;;;1.10;1.10;;;;;;;-4.13;82.47;98509.97;4913789;29;20092;-93
2024/01/14 03:51:20;;;;;;;1.20;1.20;;;;;;;-4.08;82.11;98505.16;4908227;29;20084;-94
2024/01/14 03:53:47;;;;;;;1.20;1.20;;;;;;;-4.14;81.86;98512.47;4924655;29;20035;-93
2024/01/14 03:56:13;;;;;;;1.20;1.20;;;;;;;-4.20;81.50;98504.16;4917459;29;20036;-93
2024/01/14 03:58:40;;;;;;;1.20;1.20;;;;;;;-4.15;81.08;98508.97;4901285;29;20399;-93
2024/01/14 04:01:10;;;;;;;;;;;;;;;-4.07;80.80;98504.38;4917791;29;20044;-93
2024/01/14 04:03:36;;;;;;;1.30;1.30;;;;;;;-4.16;80.89;98501.94;4914139;29;19903;-93
2024/01/14 04:06:04;;;;;;;1.20;1.20;;;;;;;-4.10;80.89;98509.34;4929152;29;20761;-93
2024/01/14 04:08:30;;;;;;;1.30;1.30;;;;;;;-4.15;81.49;98497.63;4915568;29;20253;-94
2024/01/14 04:10:56;;;;;;;1.20;1.20;;;;;;;-4.18;81.87;98505.19;4919211;29;20028;-94
2024/01/14 04:13:22;;;;;;;1.10;1.10;;;;;;;-4.05;82.21;98504.50;4920954;29;20044;-94
2024/01/14 04:15:48;;;;;;;1.20;1.20;;;;;;;-4.18;81.92;98506.09;4915622;29;20047;-93
2024/01/14 04:18:16;;;;;;;1.23;1.23;;;;;;;-4.22;82.44;98504.00;4925364;29;20051;-94
2024/01/14 04:20:41;;;;;;;1.30;1.30;;;;;;;-4.22;82.53;98500.50;4927327;29;20062;-93
2024/01/14 04:23:07;;;;;;;1.20;1.20;;;;;;;-4.25;82.95;98497.66;4934209;29;20032;-93
2024/01/14 04:25:33;;;;;;;1.30;1.30;;;;;;;-4.22;83.54;98497.91;4917668;29;20017;-93
2024/01/14 04:28:00;;;;;;;1.20;1.20;;;;;;;-4.10;82.96;98506.72;4935845;29;20036;-94
2024/01/14 04:30:27;;;;;;;1.20;1.20;;;;;;;-4.13;83.11;98509.97;4925809;29;20056;-95
2024/01/14 04:32:53;;;;;;;1.30;1.30;;;;;;;-4.15;82.86;98505.44;4927414;29;20040;-94
2024/01/14 04:35:18;;;;;;;1.20;1.20;;;;;;;-4.10;82.94;98509.34;4924614;29;20051;-94
2024/01/14 04:37:44;;;;;;;1.30;1.30;;;;;;;-4.07;82.82;98509.59;4921415;29;20051;-95
2024/01/14 04:40:11;;;;;;;1.20;1.20;;;;;;;-4.06;83.01;98510.50;4901348;29;20179;-93
2024/01/14 04:42:37;;;;;;;1.20;1.20;;;;;;;-4.05;83.05;98508.00;4917617;29;20040;-93
2024/01/14 04:45:03;;;;;;;1.30;1.30;;;;;;;-4.06;82.73;98508.81;4935096;29;20043;-93
2024/01/14 04:47:30;;;;;;;1.30;1.30;;;;;;;-4.16;83.45;98508.84;4919523;29;20507;-94
2024/01/14 04:49:56;;;;;;;1.30;1.30;;;;;;;-4.11;83.40;98507.53;4899667;29;20036;-93
2024/01/14 04:52:23;;;;;;;1.30;1.30;;;;;;;-4.07;83.70;98509.59;4934012;29;20055;-93
2024/01/14 04:54:49;;;;;;;1.30;1.30;;;;;;;-4.05;83.75;98507.09;4919878;29;20036;-93
2024/01/14 04:57:16;;;;;;;1.30;1.30;;;;;;;-4.12;83.73;98516.09;4898294;29;20108;-94
2024/01/14 04:59:44;;;;;;;1.20;1.20;;;;;;;-4.00;83.50;98511.00;4924966;29;20135;-94
2024/01/14 05:02:10;;;;;;;1.30;1.30;;;;;;;-3.84;83.22;98507.94;4903807;29;20047;-94
2024/01/14 05:04:35;;;;;;;1.20;1.20;;;;;;;-3.93;83.20;98509.03;4919471;29;20040;-94
2024/01/14 05:07:02;;;;;;;1.30;1.30;;;;;;;-3.84;82.84;98502.72;4919354;29;20130;-94
2024/01/14 05:09:28;;;;;;;1.30;1.30;;;;;;;-4.00;83.50;98513.59;4923158;29;20048;-93
2024/01/14 05:11:54;;;;;;;1.30;1.30;;;;;;;-4.05;84.14;98509.72;4921193;29;20028;-93
2024/01/14 05:14:20;;;;;;;1.20;1.20;;;;;;;-4.05;84.53;98502.81;4922109;29;20127;-96
2024/01/14 05:16:47;;;;;;;1.30;1.30;;;;;;;-4.05;84.84;98499.28;4885207;29;20143;-94
2024/01/14 05:19:13;;;;;;;1.40;1.40;;;;;;;-4.09;85.26;98503.34;4919662;29;20051;-95
2024/01/14 05:21:39;;;;;;;1.30;1.30;;;;;;;-4.08;85.21;98493.81;4915219;29;20036;-96
2024/01/14 05:24:05;;;;;;;1.40;1.40;;;;;;;-4.23;85.58;98485.66;4920995;29;20069;-94
2024/01/14 05:26:31;;;;;;;1.20;1.20;;;;;;;-4.11;85.78;98486.69;4903489;29;20483;-95
2024/01/14 05:28:59;;;;;;;1.23;1.23;;;;;;;-4.06;85.34;98484.44;4896638;29;20043;-93
2024/01/14 05:31:26;;;;;;;1.30;1.30;;;;;;;-4.06;85.70;98482.75;4914251;29;20034;-95
2024/01/14 05:33:53;;;;;;;1.23;1.23;;;;;;;-4.03;85.86;98475.16;4903679;29;20036;-94
2024/01/14 05:36:18;;;;;;;1.40;1.40;;;;;;;-3.96;85.70;98471.38;4903233;29;20389;-94
2024/01/14 05:38:45;;;;;;;1.30;1.30;;;;;;;-4.17;85.66;98467.94;4932397;29;20487;-93
2024/01/14 05:41:14;;;;;;;1.27;1.27;;;;;;;-4.18;86.13;98471.31;4933121;29;20075;-93
2024/01/14 05:43:39;;;;;;;1.20;1.20;;;;;;;-4.21;86.11;98461.59;4916537;29;20055;-92
2024/01/14 05:46:06;;;;;;;1.30;1.30;;;;;;;-4.03;85.95;98474.25;4933021;29;20036;-92
2024/01/14 05:48:31;;;;;;;1.30;1.30;;;;;;;-3.83;85.63;98486.28;4934691;29;20119;-94
2024/01/14 05:50:58;;;;;;;1.40;1.40;;;;;;;-4.05;85.85;98473.25;4936384;29;20040;-93
2024/01/14 05:53:25;;;;;;;1.33;1.33;;;;;;;-4.05;85.38;98474.16;4936426;29;20040;-95
2024/01/14 05:55:50;;;;;;;1.20;1.20;;;;;;;-4.06;85.74;98468.81;4948768;28;20320;-94
2024/01/14 05:58:16;;;;;;;1.30;1.30;;;;;;;-3.94;85.44;98469.78;4933631;29;20035;-94
2024/01/14 06:00:44;;;;;;;1.30;1.30;;;;;;;-3.92;84.72;98465.63;4911171;29;20048;-94
2024/01/14 06:03:10;;;;;;;1.20;1.20;;;;;;;-3.91;84.79;98468.34;4934461;29;20040;-94
2024/01/14 06:05:36;;;;;;;1.30;1.30;;;;;;;-3.91;84.37;98470.06;4934700;29;20012;-94
2024/01/14 06:08:02;;;;;;;1.20;1.20;;;;;;;-4.04;84.35;98462.94;4928886;29;20043;-93
2024/01/14 06:10:27;;;;;;;1.30;1.30;;;;;;;-4.21;84.87;98468.50;4926894;29;20048;-93
2024/01/14 06:12:53;;;;;;;1.25;1.25;;;;;;;-4.24;85.64;98470.84;4952187;29;20044;-94
2024/01/14 06:15:19;;;;;;;1.30;1.30;;;;;;;-4.13;85.47;98463.09;4935785;29;20033;-93
2024/01/14 06:17:44;;;;;;;1.30;1.30;;;;;;;-4.10;84.61;98462.44;4931448;29;20048;-94
2024/01/14 06:20:11;;;;;;;1.20;1.20;;;;;;;-4.04;83.84;98462.03;4930906;29;20037;-93
2024/01/14 06:22:37;;;;;;;1.33;1.33;;;;;;;-4.01;84.43;98457.06;4917628;29;20048;-94
2024/01/14 06:25:04;;;;;;;1.23;1.23;;;;;;;-4.04;83.65;98444.69;4919270;29;20059;-92
2024/01/14 06:27:29;;;;;;;1.30;1.30;;;;;;;-4.13;83.32;98450.06;4923056;29;20048;-92
2024/01/14 06:29:55;;;;;;;1.30;1.30;;;;;;;-3.99;82.51;98443.38;4940911;29;20115;-92
2024/01/14 06:32:22;;;;;;;1.30;1.30;;;;;;;-4.14;82.88;98444.75;4953786;29;20040;-92
2024/01/14 06:34:49;;;;;;;1.23;1.23;;;;;;;-4.14;82.60;98439.53;4941129;29;20052;-93
2024/01/14 06:37:17;;;;;;;1.40;1.40;;;;;;;-4.15;82.88;98453.34;4951986;29;20112;-95
2024/01/14 06:39:43;;;;;;;1.23;1.23;;;;;;;-4.15;83.15;98454.25;4935069;29;20039;-95
2024/01/14 06:42:10;;;;;;;1.30;1.30;;;;;;;-4.13;83.39;98439.66;4924859;29;20139;-92
2024/01/14 06:44:41;;;;;;;1.23;1.23;;;;;;;-4.22;83.54;98438.91;4942941;29;20032;-91
2024/01/14 06:47:06;;;;;;;1.30;1.30;;;;;;;-4.28;83.92;98434.91;4937755;29;20028;-91
2024/01/14 06:49:32;;;;;;;1.20;1.20;;;;;;;-4.28;84.05;98424.50;4924261;29;20043;-94
2024/01/14 06:51:58;;;;;;;1.25;1.25;;;;;;;-4.14;84.03;98419.59;4925197;29;20271;-91
2024/01/14 06:54:23;;;;;;;1.20;1.20;;;;;;;-4.17;83.95;98423.66;4920307;29;20034;-92
2024/01/14 06:56:49;;;;;;;1.30;1.30;;;;;;;-4.39;84.86;98418.41;4925465;29;20038;-94
2024/01/14 06:59:18;;;;;;;1.30;1.30;;;;;;;-4.34;84.85;98409.28;4923294;29;20072;-93
2024/01/14 07:01:47;;;;;;;1.20;1.20;;;;;;;-4.25;84.82;98415.22;4938994;29;20044;-95
2024/01/14 07:04:14;;;;;;;1.27;1.27;;;;;;;-4.21;84.69;98413.78;4922129;29;20044;-93
2024/01/14 07:06:40;;;;;;;1.30;1.30;;;;;;;-4.24;84.34;98405.72;4922529;29;20032;-93
2024/01/14 07:09:23;;;;;;;1.20;1.20;;;;;;;-4.14;83.83;98403.06;4938369;29;20044;-92
2024/01/14 07:11:49;;;;;;;1.20;1.20;;;;;;;-4.23;83.14;98400.63;4903159;29;20040;-93
2024/01/14 07:14:14;;;;;;;1.30;1.30;;;;;;;-4.21;83.38;98403.38;4921459;29;20040;-94
2024/01/14 07:16:40;;;;;;;1.30;1.30;;;;;;;-3.97;82.98;98407.94;4923160;29;20040;-92
2024/01/14 07:19:06;;;;;;;1.30;1.30;;;;;;;-3.96;83.18;98404.53;4909885;29;20048;-93
2024/01/14 07:21:31;;;;;;;1.30;1.30;;;;;;;-4.02;83.06;98396.25;4910977;29;20044;-93
2024/01/14 07:23:58;;;;;;;1.30;1.30;;;;;;;-4.20;82.75;98389.56;4905142;29;20027;-93
2024/01/14 07:26:30;;;;;;;1.30;1.30;;;;;;;-4.27;83.17;98389.84;4898275;29;20044;-93
2024/01/14 07:39:46;;;;;;;1.30;1.30;;;;;;;-4.17;82.71;98380.31;6248990;22;1318473;-93
2024/01/14 07:42:12;;;;;;;1.20;1.20;;;;;;;-4.05;82.10;98377.75;6227151;23;20020;-95
2024/01/14 07:44:38;;;;;;;1.30;1.30;;;;;;;-4.17;82.38;98376.75;6201185;23;20012;-94
2024/01/14 07:47:05;;;;;;;1.30;1.30;;;;;;;-4.10;82.07;98379.09;6199857;23;19999;-94
2024/01/14 07:49:30;;;;;;;1.38;1.38;;;;;;;-3.93;81.48;98383.00;6226581;23;20349;-94
2024/01/14 07:51:57;;;;;;;1.30;1.30;;;;;;;-4.17;81.96;98376.75;6201696;23;20452;-93
2024/01/14 07:54:23;;;;;;;1.30;1.30;;;;;;;-4.24;82.18;98372.78;6200972;23;20082;-93
2024/01/14 07:56:49;;;;;;;1.30;1.30;;;;;;;-4.23;82.18;98378.88;6226831;23;20013;-93
2024/01/14 07:59:14;;;;;;;1.30;1.30;;;;;;;-4.08;81.80;98380.09;6227475;23;20361;-92
2024/01/14 08:01:42;;;;;;;1.30;1.30;;;;;;;-4.02;80.83;98377.09;6225096;23;20036;-92
2024/01/14 08:04:10;;;;;;;1.30;1.30;;;;;;;-4.00;80.75;98371.22;6226132;23;20024;-92
2024/01/14 08:06:38;;;;;;;1.20;1.20;;;;;;;-4.03;80.95;98365.75;6203489;23;20004;-92
2024/01/14 08:09:03;;;;;;;1.20;1.20;;;;;;;-3.97;80.70;98366.25;6227138;23;20035;-93
2024/01/14 08:11:29;;;;;;;1.30;1.30;;;;;;;-4.07;81.17;98368.91;6226987;23;20043;-94
2024/01/14 08:14:02;;;;;;;1.30;1.30;;;;;;;-3.97;80.78;98376.69;6201758;23;20015;-94
2024/01/14 08:16:28;;;;;;;1.30;1.30;;;;;;;-3.94;80.46;98360.34;6202322;23;20012;-94
2024/01/14 08:18:56;;;;;;;1.30;1.30;;;;;;;-4.05;80.75;98367.34;6200710;23;20019;-93
2024/01/14 08:21:24;;;;;;;1.30;1.30;;;;;;;-4.01;80.64;98364.19;6222095;23;20502;-92
2024/01/14 08:23:49;;;;;;;1.30;1.30;;;;;;;-3.89;80.21;98365.13;6228893;23;20091;-93
2024/01/14 08:26:16;;;;;;;1.23;1.23;;;;;;;-3.89;80.59;98364.22;6231549;23;20039;-94
2024/01/14 08:28:42;;;;;;;1.30;1.30;;;;;;;-4.02;80.49;98364.97;6215476;23;20073;-94
2024/01/14 08:31:07;;;;;;;1.30;1.30;;;;;;;-3.91;80.58;98371.03;6232549;23;19993;-94
2024/01/14 08:33:33;;;;;;;1.20;1.20;;;;;;;-3.91;80.05;98371.94;6212099;23;20009;-94
2024/01/14 08:35:59;;;;;;;1.30;1.30;;;;;;;-3.89;79.72;98375.56;6216544;23;20008;-93
2024/01/14 08:38:24;;;;;;;1.30;1.30;;;;;;;-3.69;79.47;98368.38;6217427;23;20012;-93
2024/01/14 08:40:51;;;;;;;1.30;1.30;;;;;;;-3.69;79.36;98360.56;6213179;23;20335;-93
2024/01/14 08:43:17;;;;;;;1.35;1.35;;;;;;;-3.82;79.24;98365.63;6237655;23;20016;-93
2024/01/14 08:45:44;;;;;;;1.30;1.30;;;;;;;-3.67;78.81;98357.31;6212306;23;20032;-92
2024/01/14 08:48:11;;;;;;;1.30;1.30;;;;;;;-3.66;78.92;98355.59;6212786;23;19996;-92
2024/01/14 08:50:37;;;;;;;1.30;1.30;;;;;;;-3.83;79.51;98358.59;6214117;22;20027;-92
2024/01/14 08:53:03;;;;;;;1.20;1.20;;;;;;;-3.78;79.08;98354.69;6215426;22;20005;-94
2024/01/14 08:55:32;;;;;;;1.30;1.30;;;;;;;-3.72;79.21;98342.09;6241413;22;20017;-93
2024/01/14 08:58:00;;;;;;;1.30;1.30;;;;;;;-4.02;79.84;98354.56;6215127;22;20016;-94
2024/01/14 09:00:27;;;;;;;1.30;1.30;;;;;;;-4.00;79.61;98350.38;6236454;23;20004;-94
2024/01/14 09:02:52;;;;;;;1.30;1.30;;;;;;;-3.84;78.90;98344.66;6201690;23;20015;-93
2024/01/14 09:05:22;;;;;;;1.20;1.20;;;;;;;-3.87;79.15;98342.72;6198441;23;20381;-95
2024/01/14 09:07:48;;;;;;;1.30;1.30;;;;;;;-3.65;78.45;98333.97;6224690;23;20006;-95
2024/01/14 09:10:14;;;;;;;1.20;1.20;;;;;;;-3.67;77.73;98341.66;6197190;23;20051;-94
2024/01/14 09:12:39;;;;;;;1.30;1.30;;;;;;;-3.74;78.02;98331.53;6219090;23;20001;-94
2024/01/14 09:15:06;;;;;;;1.10;1.10;;;;;;;-3.49;77.44;98326.53;6168798;23;20020;-95
2024/01/14 09:17:31;;;;;;;1.25;1.25;;;;;;;-3.68;78.45;98336.34;6218137;23;20032;-93
2024/01/14 09:19:57;;;;;;;1.30;1.30;;;;;;;-4.03;79.47;98331.88;6193889;23;20062;-95
2024/01/14 09:22:24;;;;;;;1.20;1.20;;;;;;;-4.31;80.14;98333.09;6220775;23;20017;-93
2024/01/14 09:24:51;;;;;;;1.30;1.30;;;;;;;-4.14;80.38;98330.13;6195833;23;20009;-93
2024/01/14 09:27:17;;;;;;;1.30;1.30;;;;;;;-3.73;78.95;98327.28;6198104;23;20020;-95
2024/01/14 09:29:46;;;;;;;1.30;1.30;;;;;;;-3.34;78.14;98321.59;6171853;23;20016;-95
2024/01/14 09:32:13;;;;;;;1.27;1.27;;;;;;;-3.42;78.15;98327.91;6220815;23;20024;-94
2024/01/14 09:34:39;;;;;;;1.30;1.30;;;;;;;-3.00;76.13;98317.19;6195313;23;20028;-93
2024/01/14 09:37:05;;;;;;;1.30;1.30;;;;;;;-3.01;76.32;98320.59;6168278;23;20085;-95
2024/01/14 09:39:32;;;;;;;1.30;1.30;;;;;;;-2.89;75.73;98313.66;6168613;23;20025;-95
2024/01/14 09:42:34;;;;;;;1.20;1.20;;;;;;;-2.93;75.05;98311.63;6144463;23;20021;-95
2024/01/14 09:45:00;;;;;;;1.30;1.30;;;;;;;-2.74;73.67;98318.19;6176434;23;20073;-96
2024/01/14 09:47:31;;;;;;;1.23;1.23;;;;;;;-2.63;73.50;98297.31;6169950;23;20481;-93
2024/01/14 09:50:03;;;;;;;1.30;1.30;;;;;;;-2.34;72.30;98307.25;6172976;23;20051;-94
2024/01/14 09:52:32;;;;;;;1.30;1.30;;;;;;;-2.50;72.63;98301.72;6195881;23;20024;-92
2024/01/14 09:55:00;;;;;;;1.30;1.30;;;;;;;-2.78;73.70;98297.88;6171529;23;20056;-92
2024/01/14 09:57:32;;;;;;;1.20;1.20;;;;;;;-3.00;75.31;98298.94;6170357;23;20009;-94
2024/01/14 10:00:06;;;;;;;1.20;1.20;;;;;;;-3.99;78.55;98293.97;6149656;23;20017;-94
2024/01/14 10:02:33;;;;;;;1.27;1.27;;;;;;;-3.77;78.63;98292.22;6200177;23;20020;-92
2024/01/14 10:05:00;;;;;;;1.30;1.30;;;;;;;-3.79;78.25;98293.78;6150427;23;20501;-92
2024/01/14 10:07:27;;;;;;;;;;;;;;;-3.41;77.37;98288.00;6206184;23;20040;-92
2024/01/14 10:09:53;;;;;;;1.30;1.30;;;;;;;-2.92;76.50;98270.81;6182068;23;19911;-91
2024/01/14 10:12:19;;;;;;;1.30;1.30;;;;;;;-3.25;76.07;98279.66;6197023;23;20012;-95
2024/01/14 10:14:58;;;;;;;1.30;1.30;;;;;;;-3.18;76.00;98263.63;6196726;23;20032;-90
2024/01/14 10:17:25;;;;;;;1.25;1.25;;;;;;;-3.26;76.58;98267.38;6175199;23;20052;-92
2024/01/14 10:19:53;;;;;;;1.30;1.30;;;;;;;-3.70;77.86;98263.22;6155809;23;20021;-91
2024/01/14 10:22:23;;;;;;;1.30;1.30;;;;;;;-3.69;78.50;98257.25;6156325;23;20084;-91
2024/01/14 10:32:57;;;;;;;1.27;1.27;;;;;;;-2.32;73.93;98237.72;6137043;22;20027;-91
2024/01/14 10:43:16;;;;;;;1.20;1.20;;;;;;;-2.59;74.80;98214.88;6117731;23;20025;-91
2024/01/14 10:45:47;;;;;;;1.20;1.20;;;;;;;-2.56;74.51;98222.03;6093905;23;20241;-92
2024/01/14 10:48:16;;;;;;;1.17;1.17;;;;;;;-2.75;76.10;98201.53;6046135;23;20018;-92
2024/01/14 10:50:49;;;;;;;1.20;1.20;;;;;;;-2.36;73.65;98195.59;6115312;23;20026;-92
2024/01/14 10:53:24;;;;;;;1.30;1.30;;;;;;;-1.66;71.86;98196.94;6065607;23;20046;-90
2024/01/14 10:56:00;;;;;;;1.20;1.20;;;;;;;-2.35;73.68;98195.75;6063217;23;20625;-92
2024/01/14 10:58:36;;;;;;;1.20;1.20;;;;;;;-2.07;72.48;98192.41;6110449;23;20089;-92
2024/01/14 11:01:07;;;;;;;1.20;1.20;;;;;;;-2.71;75.44;98188.81;6056523;23;20014;-92
2024/01/14 11:03:33;;;;;;;1.20;1.20;;;;;;;-2.39;74.86;98192.81;6078572;23;20042;-92
2024/01/14 11:05:59;;;;;;;1.20;1.20;;;;;;;-1.97;72.58;98173.03;6052524;23;20022;-92
2024/01/14 11:08:26;;;;;;;1.30;1.30;;;;;;;-2.22;73.31;98180.91;6076036;23;20348;-91
2024/01/14 11:10:53;;;;;;;1.20;1.20;;;;;;;-1.94;73.54;98173.25;6074102;23;20010;-91
2024/01/14 11:13:47;;;;;;;1.10;1.10;;;;;;;-1.04;69.67;98161.84;6049993;23;20033;-90
2024/01/14 11:16:31;;;;;;;1.20;1.20;;;;;;;-1.14;70.47;98158.53;6050231;23;20018;-93
2024/01/14 11:19:07;;;;;;;1.30;1.30;;;;;;;-0.46;68.28;98148.91;6074187;23;20010;-91
2024/01/14 11:21:39;;;;;;;1.30;1.30;;;;;;;-0.20;66.11;98136.50;6048202;23;20015;-94
2024/01/14 11:24:05;;;;;;;1.30;1.30;;;;;;;-0.80;68.30;98127.56;6072901;23;20022;-91
2024/01/14 11:26:31;;;;;;;1.30;1.30;;;;;;;-0.77;68.09;98127.75;6072196;23;20061;-89
2024/01/14 11:29:00;;;;;;;1.25;1.25;;;;;;;0.26;65.06;98121.81;6095271;23;20006;-92
2024/01/14 11:32:03;;;;;;;1.20;1.20;;;;;;;1.77;59.81;98111.97;6084412;23;20010;-89
2024/01/14 11:34:51;;;;;;;1.10;1.10;;;;;;;1.32;61.41;98101.56;6092466;23;20030;-89
2024/01/14 11:37:28;;;;;;;1.20;1.20;;;;;;;0.43;63.10;98101.81;6068276;23;20124;-88
2024/01/14 11:40:07;;;;;;;1.20;1.20;;;;;;;2.10;60.40;98096.09;6098723;23;20021;-91
2024/01/14 11:42:50;;;;;;;1.20;1.20;;;;;;;2.23;58.15;98085.38;6123529;23;20018;-91
2024/01/14 11:45:25;;;;;;;1.20;1.20;;;;;;;3.06;55.33;98061.38;6107715;23;20014;-89
2024/01/14 11:47:52;;;;;;;1.10;1.10;;;;;;;3.13;54.82;98059.97;6105245;23;20018;-91
2024/01/14 11:50:18;;;;;;;1.10;1.10;;;;;;;3.04;55.14;98052.50;6126128;23;20465;-90
2024/01/14 11:52:49;;;;;;;1.10;1.10;;;;;;;3.76;53.80;98037.34;6100094;23;20021;-89
2024/01/14 11:55:17;;;;;;;1.10;1.10;;;;;;;4.57;51.36;98024.97;6125394;23;20020;-91
2024/01/14 11:57:44;;;;;;;1.10;1.10;;;;;;;4.42;51.61;98029.63;6120808;23;20010;-90
2024/01/14 12:00:11;;;;;;;1.00;1.00;;;;;;;1.90;56.81;98036.31;6123881;23;20045;-92
2024/01/14 12:02:38;;;;;;;1.10;1.10;;;;;;;4.19;52.25;98015.47;6104940;23;20620;-90